createdAt,value
2018-04-13T00:00:41.231Z,95470.95
2018-04-13T00:03:10.099Z,95460.30
2018-04-13T00:05:42.161Z,95461.44
2018-04-13T00:08:10.549Z,95451.59
2018-04-13T00:10:41.563Z,95447.01
2018-04-13T00:13:11.594Z,95443.31
2018-04-13T00:15:41.693Z,95448.92
2018-04-13T00:18:09.957Z,95447.31
2018-04-13T00:20:49.025Z,95446.51
2018-04-13T00:23:23.282Z,95451.13
2018-04-13T00:25:54.436Z,95450.63
2018-04-13T00:28:22.798Z,95444.77
2018-04-13T00:30:54.899Z,95439.77
2018-04-13T00:33:25.696Z,95444.09
2018-04-13T00:35:54.814Z,95444.98
2018-04-13T00:38:25.417Z,95448.29
2018-04-13T00:40:55.681Z,95445.66
2018-04-13T00:43:31.609Z,95440.95
2018-04-13T00:46:00.616Z,95446.05
2018-04-13T00:48:36.058Z,95453.03
2018-04-13T00:51:08.269Z,95456.56
2018-04-13T00:53:50.815Z,95451.97
2018-04-13T00:56:19.140Z,95438.48
2018-04-13T00:58:54.986Z,95441.53
2018-04-13T01:01:23.990Z,95456.33
2018-04-13T01:03:58.883Z,95443.23
2018-04-13T01:06:29.090Z,95428.89
2018-04-13T01:08:58.378Z,95432.36
2018-04-13T01:11:27.392Z,95428.63
2018-04-13T01:13:55.786Z,95427.35
2018-04-13T01:16:30.158Z,95426.08
2018-04-13T01:19:01.248Z,95426.59
2018-04-13T01:21:37.771Z,95425.52
2018-04-13T01:24:13.051Z,95425.70
2018-04-13T01:26:41.434Z,95423.78
2018-04-13T01:29:11.046Z,95423.00
2018-04-13T01:31:45.881Z,95426.40
2018-04-13T01:34:20.918Z,95430.67
2018-04-13T01:36:56.488Z,95438.38
2018-04-13T01:39:29.318Z,95437.56
2018-04-13T01:42:04.172Z,95439.30
2018-04-13T01:44:39.124Z,95443.53
2018-04-13T01:47:09.034Z,95454.94
2018-04-13T01:49:42.720Z,95445.23
2018-04-13T01:52:27.376Z,95451.93
2018-04-13T01:54:57.383Z,95448.43
2018-04-13T01:57:27.550Z,95447.44
2018-04-13T02:00:08.432Z,95450.83
2018-04-13T02:02:37.494Z,95450.87
2018-04-13T02:05:16.811Z,95461.92
2018-04-13T02:07:45.278Z,95469.86
2018-04-13T02:10:20.150Z,95470.52
2018-04-13T02:12:54.039Z,95470.95
2018-04-13T02:15:27.252Z,95472.40
2018-04-13T02:17:56.346Z,95475.13
2018-04-13T02:20:26.347Z,95480.32
2018-04-13T02:22:56.470Z,95479.65
2018-04-13T02:25:26.803Z,95465.81
2018-04-13T02:27:59.308Z,95459.59
2018-04-13T02:30:29.390Z,95482.47
2018-04-13T02:33:04.132Z,95468.56
2018-04-13T02:38:29.125Z,95468.34
2018-04-13T02:40:57.659Z,95464.98
2018-04-13T02:43:32.241Z,95459.13
2018-04-13T02:46:06.555Z,95461.62
2018-04-13T02:48:36.676Z,95464.14
2018-04-13T02:51:07.739Z,95465.41
2018-04-13T02:53:37.854Z,95482.73
2018-04-13T02:56:11.785Z,95486.58
2018-04-13T02:58:46.386Z,95492.47
2018-04-13T03:01:22.341Z,95489.48
2018-04-13T03:03:53.282Z,95495.41
2018-04-13T03:06:23.454Z,95501.40
2018-04-13T03:08:53.347Z,95505.24
2018-04-13T03:11:24.232Z,95514.20
2018-04-13T03:13:54.465Z,95515.20
2018-04-13T03:16:25.582Z,95520.73
2018-04-13T03:19:03.834Z,95528.81
2018-04-13T03:21:32.937Z,95528.45
2018-04-13T03:24:02.049Z,95529.29
2018-04-13T03:26:36.857Z,95534.42
2018-04-13T03:29:25.397Z,95535.67
2018-04-13T03:31:55.511Z,95539.39
2018-04-13T03:34:32.754Z,95539.75
2018-04-13T03:37:00.987Z,95541.42
2018-04-13T03:39:40.446Z,95536.34
2018-04-13T03:42:11.214Z,95527.41
2018-04-13T03:44:42.124Z,95523.94
2018-04-13T03:47:12.365Z,95528.92
2018-04-13T03:49:45.405Z,95530.12
2018-04-13T03:52:22.091Z,95523.77
2018-04-13T03:54:52.202Z,95518.27
2018-04-13T03:57:26.618Z,95521.66
2018-04-13T03:59:54.912Z,95524.56
2018-04-13T04:02:23.928Z,95523.32
2018-04-13T04:05:00.764Z,95529.70
2018-04-13T04:07:29.759Z,95531.08
2018-04-13T04:10:04.624Z,95539.57
2018-04-13T04:12:39.434Z,95551.91
2018-04-13T04:15:14.260Z,95556.56
2018-04-13T04:17:49.192Z,95554.12
2018-04-13T04:23:30.853Z,95554.20
2018-04-13T04:26:14.562Z,95554.62
2018-04-13T04:31:22.736Z,95560.19
2018-04-13T04:36:34.128Z,95572.47
2018-04-13T04:39:02.608Z,95575.42
2018-04-13T04:41:37.666Z,95577.23
2018-04-13T04:44:08.562Z,95575.94
2018-04-13T04:46:44.418Z,95577.99
2018-04-13T04:49:16.873Z,95586.86
2018-04-13T04:51:46.971Z,95591.03
2018-04-13T04:54:22.993Z,95594.39
2018-04-13T04:56:51.982Z,95601.22
2018-04-13T04:59:27.037Z,95599.61
2018-04-13T05:01:56.967Z,95600.54
2018-04-13T05:04:28.200Z,95605.16
2018-04-13T05:06:59.458Z,95603.87
2018-04-13T05:09:33.760Z,95605.11
2018-04-13T05:12:03.851Z,95600.11
2018-04-13T05:14:38.298Z,95603.95
2018-04-13T05:17:06.612Z,95601.41
2018-04-13T05:19:37.668Z,95602.71
2018-04-13T05:22:12.638Z,95606.48
2018-04-13T05:24:45.465Z,95615.35
2018-04-13T05:27:17.054Z,95618.27
2018-04-13T05:29:46.086Z,95619.47
2018-04-13T05:32:20.934Z,95617.76
2018-04-13T05:34:50.944Z,95627.89
2018-04-13T05:37:21.000Z,95634.58
2018-04-13T05:39:54.899Z,95638.79
2018-04-13T05:42:31.082Z,95646.38
2018-04-13T05:45:21.156Z,95653.16
2018-04-13T05:47:49.476Z,95662.81
2018-04-13T05:50:20.567Z,95672.10
2018-04-13T05:52:55.143Z,95684.38
2018-04-13T05:55:34.149Z,95679.22
2018-04-13T05:58:02.554Z,95686.76
2018-04-13T06:00:30.918Z,95692.66
2018-04-13T06:03:05.787Z,95695.63
2018-04-13T06:05:41.323Z,95697.27
2018-04-13T06:08:24.430Z,95695.45
2018-04-13T06:10:54.245Z,95699.12
2018-04-13T06:13:30.882Z,95690.54
2018-04-13T06:16:06.396Z,95696.75
2018-04-13T06:18:36.701Z,95710.52
2018-04-13T06:21:15.059Z,95711.25
2018-04-13T06:23:53.359Z,95705.94
2018-04-13T06:26:21.617Z,95712.11
2018-04-13T06:28:51.821Z,95716.22
2018-04-13T06:31:20.291Z,95718.98
2018-04-13T06:33:48.571Z,95720.52
2018-04-13T06:36:16.853Z,95722.57
2018-04-13T06:38:47.017Z,95736.93
2018-04-13T06:41:17.859Z,95732.61
2018-04-13T06:43:50.736Z,95738.00
2018-04-13T06:46:26.874Z,95734.06
2018-04-13T06:49:01.112Z,95739.94
2018-04-13T06:51:31.227Z,95745.67
2018-04-13T06:54:05.506Z,95744.17
2018-04-13T06:56:41.555Z,95753.72
2018-04-13T06:59:10.179Z,95748.13
2018-04-13T07:01:38.824Z,95753.53
2018-04-13T07:04:15.505Z,95759.75
2018-04-13T07:06:52.148Z,95763.42
2018-04-13T07:09:22.144Z,95767.52
2018-04-13T07:11:52.291Z,95761.80
2018-04-13T07:14:21.748Z,95765.77
2018-04-13T07:16:51.820Z,95770.57
2018-04-13T07:19:27.292Z,95770.27
2018-04-13T07:21:57.334Z,95770.27
2018-04-13T07:24:28.182Z,95791.05
2018-04-13T07:26:58.094Z,95769.42
2018-04-13T07:29:31.339Z,95775.05
2018-04-13T07:32:13.548Z,95768.05
2018-04-13T07:34:41.869Z,95770.42
2018-04-13T07:37:10.225Z,95771.83
2018-04-13T07:39:50.750Z,95768.51
2018-04-13T07:42:25.631Z,95774.06
2018-04-13T07:44:56.576Z,95779.16
2018-04-13T07:47:26.697Z,95785.30
2018-04-13T07:49:56.981Z,95777.55
2018-04-13T07:52:32.504Z,95783.98
2018-04-13T07:55:00.941Z,95780.25
2018-04-13T07:57:29.297Z,95782.73
2018-04-13T07:59:57.700Z,95788.53
2018-04-13T08:02:31.501Z,95788.48
2018-04-13T08:04:59.903Z,95798.56
2018-04-13T08:07:30.264Z,95797.28
2018-04-13T08:10:02.788Z,95799.34
2018-04-13T08:12:33.757Z,95798.27
2018-04-13T08:17:55.654Z,95800.24
2018-04-13T08:20:25.719Z,95794.56
2018-04-13T08:22:54.707Z,95790.56
2018-04-13T08:25:24.905Z,95789.89
2018-04-13T08:28:06.478Z,95789.75
2018-04-13T08:30:34.919Z,95791.78
2018-04-13T08:33:09.529Z,95791.30
2018-04-13T08:35:53.329Z,95793.59
2018-04-13T08:38:27.452Z,95799.30
2018-04-13T08:41:01.670Z,95800.80
2018-04-13T08:43:31.576Z,95796.83
2018-04-13T08:46:05.729Z,95812.34
2018-04-13T08:48:40.251Z,95815.87
2018-04-13T08:51:09.351Z,95814.95
2018-04-13T08:53:39.565Z,95817.83
2018-04-13T08:56:14.033Z,95814.96
2018-04-13T08:58:42.473Z,95809.48
2018-04-13T09:01:11.460Z,95817.53
2018-04-13T09:03:42.277Z,95827.91
2018-04-13T09:06:16.720Z,95824.85
2018-04-13T09:08:46.817Z,95828.86
2018-04-13T09:11:17.197Z,95823.66
2018-04-13T09:16:19.786Z,95833.38
2018-04-13T09:18:48.234Z,95836.63
2018-04-13T09:21:25.684Z,95840.77
2018-04-13T09:23:55.683Z,95837.59
2018-04-13T09:26:33.356Z,95843.79
2018-04-13T09:29:08.738Z,95846.97
2018-04-13T09:31:44.758Z,95862.56
2018-04-13T09:34:19.813Z,95869.55
2018-04-13T09:36:53.935Z,95875.58
2018-04-13T09:39:28.727Z,95881.55
2018-04-13T09:41:57.840Z,95888.65
2018-04-13T09:44:26.219Z,95893.64
2018-04-13T09:46:54.517Z,95894.95
2018-04-13T09:49:24.513Z,95892.37
2018-04-13T09:51:55.322Z,95898.00
2018-04-13T09:54:32.854Z,95901.84
2018-04-13T09:57:06.872Z,95906.34
2018-04-13T09:59:36.917Z,95921.67
2018-04-13T10:02:05.253Z,95919.08
2018-04-13T10:07:13.392Z,95921.20
2018-04-13T10:09:43.510Z,95928.37
2018-04-13T10:12:12.515Z,95930.84
2018-04-13T10:14:48.071Z,95927.44
2018-04-13T10:17:22.342Z,95931.45
2018-04-13T10:19:56.672Z,95924.85
2018-04-13T10:22:26.307Z,95929.66
2018-04-13T10:24:54.991Z,95939.66
2018-04-13T10:27:28.906Z,95942.95
2018-04-13T10:29:57.286Z,95945.00
2018-04-13T10:32:33.348Z,95955.82
2018-04-13T10:35:09.304Z,95953.77
2018-04-13T10:37:39.470Z,95947.28
2018-04-13T10:40:09.494Z,95941.89
2018-04-13T10:42:43.350Z,95949.68
2018-04-13T10:45:14.188Z,95957.98
2018-04-13T10:47:44.127Z,95960.84
2018-04-13T10:50:21.392Z,95963.31
2018-04-13T10:52:56.329Z,95969.80
2018-04-13T10:55:25.323Z,95961.25
2018-04-13T10:57:55.871Z,95973.84
2018-04-13T11:00:26.062Z,95970.48
2018-04-13T11:02:55.076Z,95971.95
2018-04-13T11:05:23.466Z,95978.85
2018-04-13T11:07:53.494Z,95990.27
2018-04-13T11:10:28.704Z,95997.23
2018-04-13T11:12:57.804Z,95991.71
2018-04-13T11:15:26.416Z,95998.70
2018-04-13T11:17:56.744Z,95996.06
2018-04-13T11:20:26.514Z,96009.71
2018-04-13T11:22:55.550Z,96008.88
2018-04-13T11:25:29.181Z,95997.91
2018-04-13T11:27:57.520Z,96008.66
2018-04-13T11:30:32.093Z,96017.27
2018-04-13T11:33:06.936Z,96009.75
2018-04-13T11:35:37.557Z,96013.95
2018-04-13T11:38:13.673Z,96021.09
2018-04-13T11:40:43.744Z,96025.09
2018-04-13T11:43:18.755Z,96021.84
2018-04-13T11:46:01.344Z,96027.59
2018-04-13T11:48:32.320Z,96022.75
2018-04-13T12:00:52.490Z,96055.88
2018-04-13T12:03:23.764Z,96053.58
2018-04-13T12:05:57.854Z,96053.70
2018-04-13T12:08:26.925Z,96058.43
2018-04-13T12:10:55.218Z,96053.09
2018-04-13T12:13:23.584Z,96053.45
2018-04-13T12:15:55.437Z,96065.38
2018-04-13T12:18:23.929Z,96065.56
2018-04-13T12:20:52.334Z,96068.13
2018-04-13T12:23:21.615Z,96072.42
2018-04-13T12:25:50.732Z,96074.36
2018-04-13T12:28:20.795Z,96074.44
2018-04-13T12:30:50.942Z,96076.57
2018-04-13T12:33:19.964Z,96085.33
2018-04-13T12:35:50.090Z,96090.93
2018-04-13T12:38:20.157Z,96083.81
2018-04-13T12:40:48.522Z,96093.67
2018-04-13T12:43:28.219Z,96095.33
2018-04-13T12:45:56.608Z,96092.94
2018-04-13T12:48:26.413Z,96097.33
2018-04-13T12:50:54.824Z,96095.38
2018-04-13T12:53:24.918Z,96099.30
2018-04-13T12:55:55.105Z,96099.98
2018-04-13T12:58:23.373Z,96109.30
2018-04-13T13:00:55.206Z,96102.88
2018-04-13T13:03:25.317Z,96113.30
2018-04-13T13:06:00.172Z,96115.93
2018-04-13T13:08:28.482Z,96116.83
2018-04-13T13:10:56.913Z,96115.41
2018-04-13T13:13:26.984Z,96108.16
2018-04-13T13:15:56.954Z,96116.06
2018-04-13T13:18:26.945Z,96114.34
2018-04-13T13:20:55.459Z,96127.64
2018-04-13T13:23:24.147Z,96115.54
2018-04-13T13:25:52.541Z,96115.23
2018-04-13T13:28:21.726Z,96120.80
2018-04-13T13:30:50.216Z,96120.39
2018-04-13T13:33:20.180Z,96131.62
2018-04-13T13:35:50.286Z,96133.08
2018-04-13T13:38:21.724Z,96142.53
2018-04-13T13:40:51.963Z,96143.84
2018-04-13T13:43:25.864Z,96132.05
2018-04-13T13:45:54.329Z,96147.56
2018-04-13T13:48:31.458Z,96141.98
2018-04-13T13:50:59.787Z,96151.13
2018-04-13T13:53:29.939Z,96144.06
2018-04-13T13:55:59.964Z,96149.44
2018-04-13T13:58:30.153Z,96164.97
2018-04-13T14:01:01.103Z,96164.97
2018-04-13T14:03:37.580Z,96164.74
2018-04-13T14:06:06.014Z,96159.34
2018-04-13T14:08:34.484Z,96180.42
2018-04-13T14:11:03.959Z,96197.83
2018-04-13T14:13:34.096Z,96233.05
2018-04-13T14:16:02.629Z,96247.84
2018-04-13T14:18:32.694Z,96262.56
2018-04-13T14:21:01.244Z,96295.66
2018-04-13T14:23:30.337Z,96314.20
2018-04-13T14:25:58.970Z,96320.02
2018-04-13T14:28:29.045Z,96336.47
2018-04-13T14:31:02.165Z,96345.45
2018-04-13T14:33:30.824Z,96353.44
2018-04-13T14:52:27.944Z,96392.59
2018-04-13T15:08:03.257Z,96397.05
2018-04-13T15:10:34.093Z,96414.28
2018-04-13T15:13:04.250Z,96419.22
2018-04-13T15:15:34.345Z,96425.72
2018-04-13T15:18:04.562Z,96431.68
2018-04-13T15:20:33.048Z,96448.87
2018-04-13T15:23:01.531Z,96439.41
2018-04-13T15:25:30.117Z,96442.35
2018-04-13T15:27:58.418Z,96454.38
2018-04-13T15:30:28.738Z,96457.75
2018-04-13T15:32:58.234Z,96469.53
2018-04-13T15:35:26.717Z,96480.66
2018-04-13T15:37:56.643Z,96490.78
2018-04-13T15:40:26.363Z,96503.98
2018-04-13T15:42:54.935Z,96527.33
2018-04-13T15:45:25.351Z,96528.66
2018-04-13T15:47:56.357Z,96534.97
2018-04-13T15:50:27.159Z,96554.19
2018-04-13T15:52:55.628Z,96549.31
2018-04-13T15:55:30.631Z,96545.98
2018-04-13T15:58:01.747Z,96558.72
2018-04-13T16:00:31.217Z,96571.75
2018-04-13T16:03:00.287Z,96579.92
2018-04-13T16:05:31.521Z,96583.80
2018-04-13T16:08:00.678Z,96589.22
2018-04-13T16:10:29.149Z,96600.19
2018-04-13T16:13:00.175Z,96601.89
2018-04-13T16:15:29.306Z,96612.57
2018-04-13T16:18:00.420Z,96617.73
2018-04-13T16:20:28.887Z,96625.02
2018-04-13T16:22:59.211Z,96642.38
2018-04-13T16:25:28.555Z,96648.07
2018-04-13T16:27:58.879Z,96645.55
2018-04-13T16:30:31.062Z,96644.63
2018-04-13T16:33:03.410Z,96646.97
2018-04-13T16:35:34.125Z,96650.45
2018-04-13T16:38:04.471Z,96654.63
2018-04-13T16:40:39.476Z,96651.36
2018-04-13T16:43:08.412Z,96659.23
2018-04-13T16:45:39.661Z,96660.63
2018-04-13T16:48:14.788Z,96658.97
2018-04-13T16:50:51.889Z,96657.27
2018-04-13T16:53:28.596Z,96655.09
2018-04-13T16:56:01.945Z,96654.13
2018-04-13T16:58:33.915Z,96662.36
2018-04-13T17:01:02.494Z,96669.20
2018-04-13T17:03:32.725Z,96675.12
2018-04-13T17:06:01.546Z,96678.94
2018-04-13T17:08:38.383Z,96676.40
2018-04-13T17:11:08.956Z,96681.54
2018-04-13T17:13:37.508Z,96685.42
2018-04-13T17:16:11.325Z,96687.59
2018-04-13T17:18:43.199Z,96699.09
2018-04-13T17:21:12.635Z,96706.06
2018-04-13T17:23:41.373Z,96703.95
2018-04-13T17:26:11.903Z,96712.89
2018-04-13T17:28:41.129Z,96715.47
2018-04-13T17:31:09.643Z,96718.84
2018-04-13T17:33:39.709Z,96732.95
2018-04-13T17:36:09.796Z,96722.33
2018-04-13T17:48:25.472Z,96744.59
2018-04-13T17:50:54.701Z,96748.84
2018-04-13T17:53:23.411Z,96750.98
2018-04-13T17:55:52.103Z,96755.23
2018-04-13T18:08:18.962Z,96772.73
2018-04-13T18:10:49.119Z,96778.23
2018-04-13T18:13:19.499Z,96776.13
2018-04-13T18:15:49.071Z,96778.27
2018-04-13T18:18:21.036Z,96779.54
2018-04-13T18:23:29.921Z,96790.61
2018-04-13T18:25:58.565Z,96796.95
2018-04-13T18:41:27.432Z,96839.00
2018-04-13T18:43:56.864Z,96839.81
2018-04-13T18:49:05.476Z,96848.30
2018-04-13T18:51:35.355Z,96852.56
2018-04-13T18:54:04.690Z,96855.53
2018-04-13T18:56:34.744Z,96860.61
2018-04-13T18:59:04.781Z,96861.45
2018-04-13T19:01:35.476Z,96865.69
2018-04-13T19:13:54.826Z,96874.55
2018-04-13T19:16:28.526Z,96883.02
2018-04-13T19:18:58.167Z,96883.00
2018-04-13T19:21:26.579Z,96887.64
2018-04-13T19:33:48.091Z,96888.05
2018-04-13T19:36:19.228Z,96895.67
2018-04-13T19:48:32.799Z,96923.95
2018-04-13T19:51:03.432Z,96922.26
2018-04-13T19:53:34.265Z,96931.56
2018-04-13T19:56:05.098Z,96931.13
2018-04-13T19:58:34.821Z,96934.05
2018-04-13T20:01:06.015Z,96939.51
2018-04-13T20:03:36.185Z,96943.31
2018-04-13T20:06:08.029Z,96966.98
2018-04-13T20:08:38.908Z,96962.69
2018-04-13T20:11:12.038Z,96966.44
2018-04-13T20:13:44.231Z,96967.69
2018-04-13T20:16:24.541Z,96977.38
2018-04-13T20:18:53.136Z,96981.52
2018-04-13T20:21:22.074Z,96984.03
2018-04-13T20:23:52.898Z,96989.02
2018-04-13T20:26:22.538Z,96986.44
2018-04-13T20:28:54.485Z,96977.97
2018-04-13T20:31:26.569Z,96980.11
2018-04-13T20:33:55.054Z,96979.23
2018-04-13T20:36:25.334Z,96981.34
2018-04-13T20:38:54.677Z,96977.08
2018-04-13T20:41:24.346Z,96973.21
2018-04-13T20:43:54.640Z,96979.92
2018-04-13T20:46:24.634Z,96975.21
2018-04-13T20:48:53.932Z,96972.22
2018-04-13T20:51:22.678Z,96970.47
2018-04-13T21:03:36.218Z,96986.61
2018-04-13T21:06:05.244Z,96990.37
2018-04-13T21:08:34.752Z,96998.30
2018-04-13T21:11:05.128Z,97002.09
2018-04-13T21:13:36.215Z,96994.96
2018-04-13T21:16:07.167Z,97001.67
2018-04-13T21:18:37.325Z,96998.59
2018-04-13T21:21:14.877Z,96992.13
2018-04-13T21:23:45.034Z,96992.20
2018-04-13T21:36:03.705Z,96992.80
2018-04-13T21:38:34.889Z,96996.20
2018-04-13T21:41:04.820Z,96996.64
2018-04-13T21:43:36.042Z,96996.60
2018-04-13T21:46:04.726Z,96992.78
2018-04-13T21:48:33.328Z,96989.81
2018-04-13T21:51:04.092Z,96981.73
2018-04-13T21:53:33.271Z,96982.88
2018-04-13T21:56:03.517Z,96990.86
2018-04-13T21:58:33.649Z,96989.97
2018-04-13T22:01:06.543Z,96985.77
2018-04-13T22:03:36.935Z,96996.34
2018-04-13T22:06:07.963Z,96999.72
2018-04-13T22:08:38.421Z,96999.27
2018-04-13T22:11:12.313Z,97027.95
2018-04-13T22:13:46.944Z,97006.44
2018-04-13T22:16:18.171Z,97009.78
2018-04-13T22:18:48.260Z,97018.15
2018-04-13T22:21:20.152Z,97031.17
2018-04-13T22:23:50.193Z,97034.94
2018-04-13T22:28:54.514Z,97029.29
2018-04-13T22:44:24.634Z,97041.80
2018-04-13T22:46:54.733Z,97042.16
2018-04-13T22:49:27.334Z,97048.86
2018-04-13T22:51:57.411Z,97050.44
2018-04-13T22:57:01.368Z,97062.80
2018-04-13T22:59:29.746Z,97061.86
2018-04-13T23:01:58.120Z,97066.84
2018-04-13T23:04:27.676Z,97068.83
2018-04-13T23:09:29.748Z,97079.78
2018-04-13T23:11:59.775Z,97078.47
2018-04-13T23:14:28.131Z,97082.67
2018-04-13T23:16:56.595Z,97085.20
2018-04-13T23:19:25.618Z,97081.36
2018-04-13T23:21:56.616Z,97089.75
2018-04-13T23:24:32.593Z,97092.26
2018-04-13T23:27:02.735Z,97096.45
2018-04-13T23:29:31.322Z,97096.41
2018-04-13T23:32:08.972Z,97108.50
2018-04-13T23:34:39.093Z,97102.94
2018-04-13T23:37:10.236Z,97103.30
2018-04-13T23:39:40.292Z,97109.03
2018-04-13T23:42:08.677Z,97104.41
2018-04-13T23:44:38.604Z,97115.36
2018-04-13T23:47:07.698Z,97112.80
2018-04-13T23:49:36.676Z,97114.42
2018-04-13T23:52:05.673Z,97113.54
2018-04-13T23:54:34.674Z,97117.67
2018-04-13T23:57:05.709Z,97113.85
2018-04-13T23:59:35.895Z,97111.17
